SKVP/VUP METAR and TAF weather

Enter ICAO airport designator
Station Type Date Time Source
SKVP METAR 2019/10/23 02:00 UTC NOAA

SKVP 230200Z 22004KT 9000 VCFG FEW010 BKN080 23/22 A2992


Station Type Date Time Source
SKVP Decoded METAR 2019/10/23 02:00 UTC NOAA

Valledupar / Alfonso Lopez, Colombia (SKVP) 10-26N 073-15W
Oct 22, 2019 - 10:00 PM EDT / 2019.10.23 0200 UTC
Wind: from the SW (220 degrees) at 5 MPH (4 KT):0
Visibility: 5 mile(s):0
Sky conditions: mostly cloudy
Weather: fog in the vicinity
Temperature: 73 F (23 C)
Dew Point: 71 F (22 C)
Relative Humidity: 94%
Pressure (altimeter): 29.92 in. Hg (1013 hPa)
ob: SKVP 230200Z 22004KT 9000 VCFG FEW010 BKN080 23/22 A2992
cycle: 2

Station Type Date Time Source
SKVP TAF UTC NOAA

Error!

Example: see airport list